createdAt,value
2018-08-30T00:02:10.504Z,27.07
2018-08-30T00:04:38.522Z,31.83
2018-08-30T00:07:06.609Z,28.83
2018-08-30T00:09:34.659Z,27.30
2018-08-30T00:12:02.683Z,27.03
2018-08-30T00:14:30.768Z,23.30
2018-08-30T00:16:59.098Z,28.85
2018-08-30T00:19:27.167Z,28.33
2018-08-30T00:21:55.198Z,28.30
2018-08-30T00:24:23.159Z,32.43
2018-08-30T00:26:51.162Z,24.97
2018-08-30T00:29:19.145Z,24.50
2018-08-30T00:31:47.146Z,25.10
2018-08-30T00:34:15.105Z,27.00
2018-08-30T00:36:43.077Z,28.27
2018-08-30T00:39:11.223Z,31.67
2018-08-30T00:41:39.275Z,26.90
2018-08-30T00:44:07.253Z,31.17
2018-08-30T00:46:35.274Z,27.03
2018-08-30T00:49:03.288Z,22.83
2018-08-30T00:51:31.471Z,23.33
2018-08-30T00:54:00.036Z,30.32
2018-08-30T00:56:28.207Z,25.83
2018-08-30T00:58:56.263Z,25.80
2018-08-30T01:01:24.288Z,34.37
2018-08-30T01:03:52.275Z,28.27
2018-08-30T01:06:20.243Z,32.23
2018-08-30T01:08:48.226Z,24.67
2018-08-30T01:11:16.292Z,33.10
2018-08-30T01:13:44.265Z,27.20
2018-08-30T01:16:12.220Z,26.23
2018-08-30T01:18:40.315Z,24.10
2018-08-30T01:21:08.276Z,30.00
2018-08-30T01:23:36.298Z,24.03
2018-08-30T01:26:04.667Z,27.97
2018-08-30T01:28:32.995Z,25.30
2018-08-30T01:31:00.960Z,27.33
2018-08-30T01:33:28.941Z,22.67
2018-08-30T01:35:56.898Z,22.97
2018-08-30T01:38:24.871Z,26.63
2018-08-30T01:40:52.888Z,25.47
2018-08-30T01:43:20.914Z,26.17
2018-08-30T01:45:48.996Z,33.63
2018-08-30T01:48:17.013Z,24.60
2018-08-30T01:50:45.026Z,31.80
2018-08-30T01:53:13.080Z,36.33
2018-08-30T01:55:41.058Z,22.87
2018-08-30T01:58:09.052Z,25.60
2018-08-30T02:00:37.059Z,24.87
2018-08-30T02:03:05.666Z,31.27
2018-08-30T02:05:33.626Z,24.50
2018-08-30T02:08:01.626Z,27.07
2018-08-30T02:10:29.590Z,30.83
2018-08-30T02:12:57.595Z,27.23
2018-08-30T02:15:25.557Z,30.33
2018-08-30T02:17:53.549Z,28.40
2018-08-30T02:20:21.516Z,32.03
2018-08-30T02:22:49.520Z,27.47
2018-08-30T02:25:17.505Z,24.25
2018-08-30T02:27:45.575Z,26.83
2018-08-30T02:30:13.596Z,28.30
2018-08-30T02:32:41.648Z,26.07
2018-08-30T02:35:09.659Z,24.60
2018-08-30T02:37:37.711Z,34.63
2018-08-30T02:40:05.716Z,27.80
2018-08-30T02:42:33.851Z,24.27
2018-08-30T02:45:02.610Z,24.47
2018-08-30T02:47:30.579Z,22.87
2018-08-30T02:49:58.564Z,30.07
2018-08-30T02:52:26.540Z,36.13
2018-08-30T02:54:54.513Z,35.17
2018-08-30T02:57:22.482Z,25.23
2018-08-30T02:59:50.450Z,28.90
2018-08-30T03:02:18.454Z,27.37
2018-08-30T03:04:46.455Z,27.90
2018-08-30T03:07:14.435Z,25.17
2018-08-30T03:09:42.427Z,26.50
2018-08-30T03:12:10.385Z,28.10
2018-08-30T03:14:38.363Z,31.50
2018-08-30T03:17:06.315Z,30.37
2018-08-30T03:19:34.500Z,29.40
2018-08-30T03:22:03.468Z,26.30
2018-08-30T03:24:31.583Z,25.30
2018-08-30T03:26:59.611Z,26.50
2018-08-30T03:29:27.728Z,24.60
2018-08-30T03:31:55.681Z,27.87
2018-08-30T03:34:23.692Z,29.70
2018-08-30T03:36:51.660Z,41.83
2018-08-30T03:39:19.696Z,27.73
2018-08-30T03:41:47.659Z,27.00
2018-08-30T03:44:15.631Z,29.37
2018-08-30T03:46:43.594Z,27.37
2018-08-30T03:49:11.643Z,31.10
2018-08-30T03:51:39.603Z,25.57
2018-08-30T03:54:07.564Z,33.87
2018-08-30T03:56:35.617Z,27.73
2018-08-30T03:59:04.209Z,31.57
2018-08-30T04:01:32.195Z,26.17
2018-08-30T04:04:00.188Z,30.97
2018-08-30T04:06:28.187Z,28.87
2018-08-30T04:08:56.182Z,31.43
2018-08-30T04:11:24.228Z,45.57
2018-08-30T04:13:52.221Z,26.67
2018-08-30T04:16:20.292Z,31.60
2018-08-30T04:18:52.536Z,27.63
2018-08-30T04:21:20.552Z,31.07
2018-08-30T04:23:48.528Z,26.40
2018-08-30T04:26:16.527Z,23.27
2018-08-30T04:28:44.499Z,26.83
2018-08-30T04:31:12.497Z,29.60
2018-08-30T04:33:40.535Z,30.23
2018-08-30T04:36:08.617Z,28.97
2018-08-30T04:38:36.608Z,25.60
2018-08-30T04:41:05.677Z,30.43
2018-08-30T04:43:33.744Z,29.87
2018-08-30T04:46:01.806Z,34.50
2018-08-30T04:48:29.840Z,27.53
2018-08-30T04:50:57.886Z,27.50
2018-08-30T04:53:25.862Z,30.40
2018-08-30T04:55:53.840Z,31.67
2018-08-30T04:58:21.808Z,27.23
2018-08-30T05:00:49.859Z,33.17
2018-08-30T05:03:17.884Z,33.30
2018-08-30T05:05:45.907Z,37.23
2018-08-30T05:08:13.908Z,29.63
2018-08-30T05:10:41.912Z,33.00
2018-08-30T05:13:09.934Z,28.63
2018-08-30T05:15:37.960Z,35.40
2018-08-30T05:18:06.479Z,30.27
2018-08-30T05:20:34.452Z,35.97
2018-08-30T05:23:02.517Z,40.70
2018-08-30T05:25:30.511Z,36.73
2018-08-30T05:27:58.479Z,33.60
2018-08-30T05:30:26.477Z,31.47
2018-08-30T05:32:54.615Z,42.83
2018-08-30T05:35:22.589Z,28.87
2018-08-30T05:37:50.548Z,40.10
2018-08-30T05:40:19.031Z,29.75
2018-08-30T05:42:47.132Z,30.60
2018-08-30T05:45:15.175Z,32.57
2018-08-30T05:47:43.152Z,33.97
2018-08-30T05:50:11.245Z,41.70
2018-08-30T05:52:39.546Z,32.90
2018-08-30T05:55:07.756Z,35.00
2018-08-30T05:57:36.161Z,40.50
2018-08-30T06:00:04.195Z,33.27
2018-08-30T06:02:32.304Z,31.20
2018-08-30T06:05:00.580Z,28.73
2018-08-30T06:07:28.652Z,35.20
2018-08-30T06:09:56.705Z,38.40
2018-08-30T06:12:25.156Z,34.93
2018-08-30T06:14:53.639Z,33.90
2018-08-30T06:17:21.983Z,36.20
2018-08-30T06:19:50.836Z,42.70
2018-08-30T06:22:19.149Z,42.63
2018-08-30T06:24:47.372Z,33.73
2018-08-30T06:27:15.336Z,33.93
2018-08-30T06:29:43.311Z,33.63
2018-08-30T06:32:12.336Z,34.53
2018-08-30T06:34:40.476Z,34.48
2018-08-30T06:37:08.844Z,31.90
2018-08-30T06:39:36.895Z,34.67
2018-08-30T06:42:05.033Z,34.60
2018-08-30T06:44:33.028Z,30.93
2018-08-30T06:47:01.079Z,32.10
2018-08-30T06:49:29.059Z,32.50
2018-08-30T06:51:57.056Z,38.27
2018-08-30T06:54:25.104Z,31.93
2018-08-30T06:56:53.231Z,37.40
2018-08-30T06:59:21.342Z,34.30
2018-08-30T07:01:49.517Z,37.97
2018-08-30T07:04:17.610Z,38.80
2018-08-30T07:06:45.496Z,49.40
2018-08-30T07:09:13.447Z,37.30
2018-08-30T07:11:41.455Z,37.00
2018-08-30T07:14:09.476Z,35.10
2018-08-30T07:16:37.619Z,36.63
2018-08-30T07:19:06.152Z,42.53
2018-08-30T07:21:34.174Z,37.47
2018-08-30T07:24:02.188Z,31.13
2018-08-30T07:26:31.271Z,33.80
2018-08-30T07:28:59.706Z,37.20
2018-08-30T07:31:27.875Z,48.03
2018-08-30T07:33:55.829Z,39.37
2018-08-30T07:36:23.809Z,41.37
2018-08-30T07:38:51.787Z,37.83
2018-08-30T07:41:19.816Z,43.17
2018-08-30T07:43:47.856Z,37.83
2018-08-30T07:46:16.146Z,42.57
2018-08-30T07:48:44.128Z,43.23
2018-08-30T07:51:12.093Z,39.40
2018-08-30T07:53:40.102Z,45.57
2018-08-30T07:56:08.119Z,42.23
2018-08-30T07:58:36.120Z,38.47
2018-08-30T08:01:04.153Z,39.50
2018-08-30T08:03:32.175Z,42.73
2018-08-30T08:06:00.441Z,45.47
2018-08-30T08:08:28.345Z,46.37
2018-08-30T08:10:56.314Z,35.40
2018-08-30T08:13:24.317Z,34.77
2018-08-30T08:15:52.308Z,38.57
2018-08-30T08:18:20.269Z,39.63
2018-08-30T08:20:48.272Z,37.30
2018-08-30T08:23:16.272Z,40.33
2018-08-30T08:25:44.309Z,42.77
2018-08-30T08:28:12.304Z,45.10
2018-08-30T08:30:40.272Z,43.00
2018-08-30T08:33:08.243Z,41.20
2018-08-30T08:35:36.195Z,42.30
2018-08-30T08:38:04.209Z,38.97
2018-08-30T08:40:32.166Z,38.37
2018-08-30T08:43:00.170Z,42.10
2018-08-30T08:45:28.140Z,39.40
2018-08-30T08:47:56.238Z,44.80
2018-08-30T08:50:24.080Z,52.17
2018-08-30T08:52:52.288Z,45.73
2018-08-30T08:55:20.334Z,48.17
2018-08-30T08:57:49.672Z,45.20
2018-08-30T09:00:17.644Z,57.37
2018-08-30T09:02:45.926Z,39.23
2018-08-30T09:05:13.910Z,45.87
2018-08-30T09:07:41.922Z,44.43
2018-08-30T09:10:09.903Z,45.93
2018-08-30T09:12:37.971Z,44.73
2018-08-30T09:15:05.940Z,46.23
2018-08-30T09:17:33.979Z,44.50
2018-08-30T09:20:01.991Z,43.70
2018-08-30T09:22:29.989Z,47.53
2018-08-30T09:24:58.073Z,47.07
2018-08-30T09:27:26.090Z,47.70
2018-08-30T09:29:54.128Z,46.87
2018-08-30T09:32:22.099Z,44.90
2018-08-30T09:34:50.278Z,44.23
2018-08-30T09:37:18.287Z,39.70
2018-08-30T09:39:46.288Z,42.97
2018-08-30T09:42:14.808Z,49.83
2018-08-30T09:44:42.788Z,52.10
2018-08-30T09:47:10.812Z,50.40
2018-08-30T09:49:38.764Z,48.67
2018-08-30T09:52:06.788Z,46.60
2018-08-30T09:54:34.760Z,51.33
2018-08-30T09:57:02.936Z,56.63
2018-08-30T09:59:30.936Z,60.07
2018-08-30T10:02:06.265Z,64.30
2018-08-30T10:04:34.259Z,57.60
2018-08-30T10:07:02.243Z,58.27
2018-08-30T10:09:30.248Z,61.47
2018-08-30T10:11:58.351Z,62.23
2018-08-30T10:14:26.451Z,60.50
2018-08-30T10:16:54.615Z,63.80
2018-08-30T10:19:22.678Z,63.40
2018-08-30T10:21:51.526Z,55.83
2018-08-30T10:24:19.588Z,55.20
2018-08-30T10:26:47.544Z,56.53
2018-08-30T10:29:15.589Z,64.67
2018-08-30T10:31:43.596Z,57.87
2018-08-30T10:34:11.572Z,67.67
2018-08-30T10:36:39.688Z,59.20
2018-08-30T10:39:08.134Z,58.00
2018-08-30T10:41:36.486Z,58.77
2018-08-30T10:44:04.508Z,60.73
2018-08-30T10:46:32.464Z,56.47
2018-08-30T10:49:00.462Z,57.97
2018-08-30T10:51:28.479Z,65.63
2018-08-30T10:53:56.484Z,63.10
2018-08-30T10:56:25.681Z,56.77
2018-08-30T10:58:53.645Z,60.23
2018-08-30T11:01:21.786Z,54.63
2018-08-30T11:03:49.867Z,60.57
2018-08-30T11:06:17.982Z,59.63
2018-08-30T11:08:45.966Z,56.13
2018-08-30T11:11:14.988Z,59.03
2018-08-30T11:13:42.979Z,53.47
2018-08-30T11:16:10.931Z,51.13
2018-08-30T11:18:39.015Z,49.10
2018-08-30T11:21:07.820Z,57.57
2018-08-30T11:23:35.855Z,49.60
2018-08-30T11:26:03.792Z,53.40
2018-08-30T11:28:31.772Z,48.47
2018-08-30T11:30:59.816Z,56.83
2018-08-30T11:33:27.935Z,48.00
2018-08-30T11:35:55.907Z,49.53
2018-08-30T11:38:23.902Z,51.43
2018-08-30T11:40:58.611Z,51.10
2018-08-30T11:43:26.670Z,50.53
2018-08-30T11:45:54.643Z,52.17
2018-08-30T11:48:22.712Z,43.40
2018-08-30T11:50:50.720Z,42.07
2018-08-30T11:53:18.764Z,39.43
2018-08-30T11:55:46.992Z,35.40
2018-08-30T11:58:15.871Z,32.30
2018-08-30T12:00:43.912Z,33.70
2018-08-30T12:03:12.160Z,32.33
2018-08-30T12:05:40.192Z,27.17
2018-08-30T12:08:08.223Z,33.57
2018-08-30T12:10:36.339Z,34.20
2018-08-30T12:13:04.457Z,30.63
2018-08-30T12:15:32.612Z,29.70
2018-08-30T12:18:00.722Z,19.73
2018-08-30T12:20:28.940Z,24.50
2018-08-30T12:22:56.913Z,24.27
2018-08-30T12:25:24.954Z,23.30
2018-08-30T12:27:52.967Z,21.10
2018-08-30T12:30:21.551Z,24.63
2018-08-30T12:32:49.614Z,20.63
2018-08-30T12:35:17.755Z,23.40
2018-08-30T12:37:45.783Z,27.43
2018-08-30T12:40:13.734Z,22.30
2018-08-30T12:42:41.728Z,21.83
2018-08-30T12:45:09.714Z,26.13
2018-08-30T12:47:37.647Z,19.73
2018-08-30T12:50:05.887Z,28.07
2018-08-30T12:52:33.917Z,18.60
2018-08-30T12:55:02.101Z,19.67
2018-08-30T12:57:30.280Z,22.10
2018-08-30T12:59:58.443Z,23.47
2018-08-30T13:02:27.441Z,24.20
2018-08-30T13:04:55.419Z,26.00
2018-08-30T13:07:24.173Z,27.60
2018-08-30T13:09:52.252Z,24.87
2018-08-30T13:12:20.254Z,30.50
2018-08-30T13:14:48.386Z,23.03
2018-08-30T13:17:16.426Z,24.93
2018-08-30T13:19:44.499Z,29.57
2018-08-30T13:22:12.833Z,23.80
2018-08-30T13:24:40.808Z,25.97
2018-08-30T13:27:08.719Z,24.60
2018-08-30T13:29:36.675Z,25.50
2018-08-30T13:32:04.805Z,28.87
2018-08-30T13:34:32.744Z,24.47
2018-08-30T13:37:00.769Z,28.13
2018-08-30T13:39:28.930Z,25.13
2018-08-30T13:41:56.869Z,19.60
2018-08-30T13:44:24.743Z,19.83
2018-08-30T13:46:52.804Z,21.47
2018-08-30T13:49:21.020Z,21.40
2018-08-30T13:51:56.161Z,30.50
2018-08-30T13:54:24.548Z,20.67
2018-08-30T13:56:52.572Z,24.13
2018-08-30T13:59:21.262Z,19.07
2018-08-30T14:01:49.151Z,36.97
2018-08-30T14:04:17.008Z,19.77
2018-08-30T14:06:45.028Z,26.73
2018-08-30T14:09:13.100Z,24.60
2018-08-30T14:11:40.974Z,22.40
2018-08-30T14:14:08.881Z,24.17
2018-08-30T14:16:36.674Z,28.83
2018-08-30T14:19:04.999Z,23.20
2018-08-30T14:21:33.020Z,25.90
2018-08-30T14:24:01.143Z,25.27
2018-08-30T14:26:29.236Z,26.43
2018-08-30T14:28:57.156Z,25.63
2018-08-30T14:31:25.187Z,20.70
2018-08-30T14:33:53.098Z,33.50
2018-08-30T14:36:21.085Z,24.10
2018-08-30T14:38:49.197Z,20.30
2018-08-30T14:41:17.193Z,27.03
2018-08-30T14:43:45.124Z,21.50
2018-08-30T14:46:13.142Z,21.87
2018-08-30T14:48:41.106Z,22.33
2018-08-30T14:51:09.159Z,25.10
2018-08-30T14:53:37.381Z,25.30
2018-08-30T14:56:05.660Z,25.20
2018-08-30T14:58:33.805Z,27.70
2018-08-30T15:01:02.169Z,29.23
2018-08-30T15:03:32.575Z,28.83
2018-08-30T15:06:00.660Z,25.47
2018-08-30T15:08:29.217Z,27.13
2018-08-30T15:10:57.317Z,26.03
2018-08-30T15:13:25.410Z,22.50
2018-08-30T15:15:53.391Z,23.60
2018-08-30T15:18:21.833Z,27.35
2018-08-30T15:20:49.953Z,24.87
2018-08-30T15:23:19.690Z,26.07
2018-08-30T15:25:47.710Z,30.30
2018-08-30T15:28:15.753Z,29.63
2018-08-30T15:30:43.737Z,26.97
2018-08-30T15:33:11.800Z,29.80
2018-08-30T15:35:39.772Z,23.50
2018-08-30T15:38:07.772Z,22.77
2018-08-30T15:40:35.751Z,23.90
2018-08-30T15:43:03.839Z,22.27
2018-08-30T15:45:31.860Z,27.70
2018-08-30T15:47:59.912Z,28.77
2018-08-30T15:50:27.940Z,44.17
2018-08-30T15:52:56.228Z,21.67
2018-08-30T15:55:24.219Z,21.70
2018-08-30T15:57:52.364Z,28.10
2018-08-30T16:00:20.439Z,23.87
2018-08-30T16:02:48.783Z,21.23
2018-08-30T16:05:17.111Z,24.20
2018-08-30T16:07:44.837Z,25.67
2018-08-30T16:10:14.061Z,30.27
2018-08-30T16:12:42.393Z,29.87
2018-08-30T16:15:10.836Z,40.53
2018-08-30T16:17:38.915Z,54.87
2018-08-30T16:20:07.124Z,63.20
2018-08-30T16:22:48.506Z,44.33
2018-08-30T16:25:17.052Z,37.10
2018-08-30T16:27:45.036Z,48.00
2018-08-30T16:30:12.996Z,31.90
2018-08-30T16:32:41.576Z,33.07
2018-08-30T16:35:09.589Z,29.07
2018-08-30T16:37:38.107Z,30.00
2018-08-30T16:40:06.114Z,31.83
2018-08-30T16:42:34.136Z,54.90
2018-08-30T16:45:02.100Z,25.53
2018-08-30T16:47:30.082Z,32.07
2018-08-30T16:49:58.112Z,29.70
2018-08-30T16:52:26.321Z,28.60
2018-08-30T16:54:54.322Z,29.53
2018-08-30T16:57:22.400Z,28.40
2018-08-30T16:59:50.515Z,43.77
2018-08-30T17:02:18.529Z,25.17
2018-08-30T17:04:46.459Z,29.73
2018-08-30T17:07:14.441Z,26.10
2018-08-30T17:09:42.558Z,26.30
2018-08-30T17:12:11.329Z,22.43
2018-08-30T17:14:39.676Z,20.10
2018-08-30T17:17:07.948Z,17.63
2018-08-30T17:19:36.573Z,19.27
2018-08-30T17:22:04.628Z,22.20
2018-08-30T17:24:32.776Z,23.00
2018-08-30T17:27:00.794Z,23.17
2018-08-30T17:29:28.816Z,17.57
2018-08-30T17:31:56.790Z,18.63
2018-08-30T17:34:25.317Z,22.93
2018-08-30T17:36:53.331Z,23.80
2018-08-30T17:39:21.304Z,20.00
2018-08-30T17:41:49.262Z,31.83
2018-08-30T17:44:17.476Z,23.77
2018-08-30T17:46:45.564Z,20.50
2018-08-30T17:49:13.752Z,17.10
2018-08-30T17:51:41.704Z,20.47
2018-08-30T17:54:09.692Z,19.93
2018-08-30T17:56:37.800Z,29.13
2018-08-30T18:01:44.306Z,24.73
2018-08-30T18:04:12.377Z,26.50
2018-08-30T18:06:40.482Z,28.77
2018-08-30T18:09:09.076Z,24.73
2018-08-30T18:11:37.327Z,32.27
2018-08-30T18:14:05.332Z,55.73
2018-08-30T18:16:33.470Z,51.53
2018-08-30T18:19:01.783Z,31.30
2018-08-30T18:21:29.748Z,32.27
2018-08-30T18:23:57.926Z,23.97
2018-08-30T18:26:26.975Z,34.40
2018-08-30T18:28:55.127Z,52.43
2018-08-30T18:31:23.269Z,20.27
2018-08-30T18:33:51.190Z,30.60
2018-08-30T18:36:19.237Z,24.10
2018-08-30T18:38:47.200Z,20.47
2018-08-30T18:41:15.192Z,18.40
2018-08-30T18:43:43.167Z,30.50
2018-08-30T18:46:11.141Z,21.23
2018-08-30T18:48:39.284Z,34.50
2018-08-30T18:51:07.331Z,17.80
2018-08-30T18:53:35.303Z,23.03
2018-08-30T18:56:03.280Z,30.30
2018-08-30T18:58:31.245Z,24.57
2018-08-30T19:00:59.266Z,26.90
2018-08-30T19:03:27.382Z,26.70
2018-08-30T19:05:55.693Z,43.33
2018-08-30T19:08:23.652Z,27.13
2018-08-30T19:10:51.691Z,28.00
2018-08-30T19:13:19.966Z,30.33
2018-08-30T19:15:53.262Z,21.37
2018-08-30T19:18:26.807Z,25.67
2018-08-30T19:20:54.811Z,19.63
2018-08-30T19:23:22.867Z,18.20
2018-08-30T19:25:50.847Z,21.07
2018-08-30T19:28:18.845Z,18.80
2018-08-30T19:30:46.832Z,19.40
2018-08-30T19:33:14.884Z,19.73
2018-08-30T19:35:48.459Z,18.50
2018-08-30T19:38:16.576Z,20.77
2018-08-30T19:40:50.151Z,17.27
2018-08-30T19:43:18.184Z,15.53
2018-08-30T19:45:46.232Z,17.80
2018-08-30T19:48:14.268Z,14.70
2018-08-30T19:50:42.387Z,13.80
2018-08-30T19:53:10.441Z,15.20
2018-08-30T19:55:38.424Z,16.93
2018-08-30T19:58:06.709Z,12.20
2018-08-30T20:00:36.355Z,14.13
2018-08-30T20:03:04.680Z,28.57
2018-08-30T20:05:33.038Z,16.90
2018-08-30T20:08:01.127Z,41.97
2018-08-30T20:10:29.219Z,41.03
2018-08-30T20:12:57.392Z,20.33
2018-08-30T20:15:25.371Z,22.70
2018-08-30T20:17:53.916Z,25.00
2018-08-30T20:20:21.942Z,15.43
2018-08-30T20:22:49.968Z,17.03
2018-08-30T20:25:18.009Z,25.77
2018-08-30T20:27:46.136Z,16.10
2018-08-30T20:30:14.256Z,18.13
2018-08-30T20:32:42.454Z,22.53
2018-08-30T20:35:10.520Z,20.03
2018-08-30T20:37:38.635Z,17.53
2018-08-30T20:40:06.737Z,18.30
2018-08-30T20:42:34.848Z,12.17
2018-08-30T20:45:02.888Z,16.47
2018-08-30T20:47:30.891Z,21.73
2018-08-30T20:49:59.022Z,23.00
2018-08-30T20:52:27.011Z,23.00
2018-08-30T20:54:54.963Z,17.03
2018-08-30T20:57:22.967Z,20.10
2018-08-30T20:59:51.106Z,16.80
2018-08-30T21:02:19.096Z,21.87
2018-08-30T21:04:47.210Z,23.97
2018-08-30T21:07:15.268Z,11.37
2018-08-30T21:09:43.432Z,17.23
2018-08-30T21:12:12.479Z,13.87
2018-08-30T21:14:40.451Z,18.37
2018-08-30T21:17:09.677Z,17.63
2018-08-30T21:19:38.480Z,19.20
2018-08-30T21:22:06.856Z,17.03
2018-08-30T21:24:34.874Z,15.00
2018-08-30T21:27:02.851Z,18.57
2018-08-30T21:29:30.876Z,16.40
2018-08-30T21:31:58.869Z,18.33
2018-08-30T21:34:26.827Z,18.63
2018-08-30T21:36:54.836Z,19.33
2018-08-30T21:39:22.807Z,18.90
2018-08-30T21:41:50.789Z,20.30
2018-08-30T21:44:18.755Z,14.17
2018-08-30T21:46:46.773Z,19.27
2018-08-30T21:49:14.896Z,26.53
2018-08-30T21:51:42.851Z,20.10
2018-08-30T21:54:10.916Z,21.87
2018-08-30T21:56:38.883Z,18.23
2018-08-30T21:59:07.052Z,22.13
2018-08-30T22:01:35.070Z,16.50
2018-08-30T22:04:03.240Z,19.67
2018-08-30T22:06:31.316Z,24.73
2018-08-30T22:08:59.348Z,23.73
2018-08-30T22:11:27.392Z,22.67
2018-08-30T22:13:55.376Z,26.47
2018-08-30T22:16:23.369Z,15.57
2018-08-30T22:18:51.402Z,19.13
2018-08-30T22:21:34.316Z,17.93
2018-08-30T22:24:02.635Z,20.73
2018-08-30T22:26:30.695Z,12.90
2018-08-30T22:28:58.779Z,16.67
2018-08-30T22:31:27.048Z,18.80
2018-08-30T22:33:55.020Z,23.07
2018-08-30T22:36:22.976Z,25.10
2018-08-30T22:38:51.105Z,15.23
2018-08-30T22:41:19.127Z,21.50
2018-08-30T22:43:47.227Z,20.80
2018-08-30T22:48:57.983Z,16.80
2018-08-30T22:51:26.040Z,26.20
2018-08-30T22:53:54.140Z,25.50
2018-08-30T22:56:22.126Z,18.27
2018-08-30T22:58:50.112Z,23.33
2018-08-30T23:01:18.180Z,17.47
2018-08-30T23:03:46.148Z,22.83
2018-08-30T23:06:14.144Z,16.20
2018-08-30T23:08:42.143Z,22.47
2018-08-30T23:11:10.237Z,21.07
2018-08-30T23:13:38.384Z,14.20
2018-08-30T23:16:06.392Z,21.27
2018-08-30T23:18:34.423Z,15.43
2018-08-30T23:21:02.444Z,25.23
2018-08-30T23:23:30.455Z,21.30
2018-08-30T23:25:58.579Z,18.33
2018-08-30T23:28:26.602Z,16.20
2018-08-30T23:30:54.576Z,23.13
2018-08-30T23:33:22.571Z,25.07
2018-08-30T23:35:50.560Z,15.17
2018-08-30T23:38:18.535Z,20.33
2018-08-30T23:40:46.504Z,12.87
2018-08-30T23:43:14.487Z,22.10
2018-08-30T23:45:42.493Z,13.07
2018-08-30T23:48:10.576Z,15.17
2018-08-30T23:50:38.602Z,22.10
2018-08-30T23:53:06.653Z,19.87
2018-08-30T23:55:34.611Z,19.13
2018-08-30T23:58:14.048Z,20.83
